createdAt,value
2023-02-23T00:02:21.714Z,31.67
2023-02-23T00:04:51.515Z,31.47
2023-02-23T00:07:22.454Z,32.40
2023-02-23T00:09:52.996Z,34.47
2023-02-23T00:12:21.443Z,34.57
2023-02-23T00:14:54.603Z,33.67
2023-02-23T00:17:27.529Z,31.37
2023-02-23T00:19:57.486Z,35.03
2023-02-23T00:22:30.795Z,30.60
2023-02-23T00:25:03.286Z,35.30
2023-02-23T00:27:31.730Z,34.07
2023-02-23T00:30:00.855Z,33.93
2023-02-23T00:32:29.887Z,32.10
2023-02-23T00:34:58.717Z,34.50
2023-02-23T00:37:35.756Z,31.30
2023-02-23T00:40:05.767Z,33.87
2023-02-23T00:42:36.531Z,35.13
2023-02-23T00:45:11.147Z,33.73
2023-02-23T00:47:40.003Z,36.57
2023-02-23T00:50:13.920Z,31.87
2023-02-23T00:52:43.865Z,34.80
2023-02-23T00:55:15.582Z,31.20
2023-02-23T00:57:45.928Z,32.83
2023-02-23T01:00:20.101Z,37.43
2023-02-23T01:02:48.939Z,32.77
2023-02-23T01:05:17.746Z,33.77
2023-02-23T01:07:51.752Z,32.67
2023-02-23T01:10:23.730Z,31.50
2023-02-23T01:12:57.621Z,39.67
2023-02-23T01:15:28.658Z,32.57
2023-02-23T01:17:57.202Z,34.50
2023-02-23T01:20:27.468Z,34.77
2023-02-23T01:22:58.375Z,34.83
2023-02-23T01:25:28.680Z,34.70
2023-02-23T01:28:01.983Z,34.80
2023-02-23T01:30:31.948Z,34.73
2023-02-23T01:33:00.974Z,35.80
2023-02-23T01:35:29.025Z,36.00
2023-02-23T01:38:00.069Z,33.93
2023-02-23T01:40:30.781Z,31.93
2023-02-23T01:43:12.020Z,32.83
2023-02-23T01:45:42.657Z,36.20
2023-02-23T01:48:15.595Z,36.73
2023-02-23T01:50:49.482Z,29.07
2023-02-23T01:53:22.984Z,37.90
2023-02-23T01:55:55.979Z,36.27
2023-02-23T01:58:26.521Z,34.53
2023-02-23T02:00:59.367Z,41.03
2023-02-23T02:03:32.808Z,36.87
2023-02-23T02:06:04.544Z,41.43
2023-02-23T02:08:44.911Z,39.43
2023-02-23T02:11:26.550Z,40.57
2023-02-23T02:13:55.430Z,42.70
2023-02-23T02:16:49.173Z,45.37
2023-02-23T02:19:44.422Z,43.97
2023-02-23T02:22:39.906Z,45.60
2023-02-23T02:25:33.939Z,45.67
2023-02-23T02:28:36.308Z,44.83
2023-02-23T02:31:57.136Z,45.67
2023-02-23T02:35:07.790Z,47.47
2023-02-23T02:37:49.026Z,48.90
2023-02-23T02:40:27.082Z,47.00
2023-02-23T02:43:09.788Z,49.37
2023-02-23T02:45:44.618Z,44.53
2023-02-23T02:48:22.424Z,46.63
2023-02-23T02:51:01.063Z,48.03
2023-02-23T02:53:41.290Z,45.83
2023-02-23T02:56:11.148Z,49.97
2023-02-23T02:58:43.941Z,49.03
2023-02-23T03:01:33.767Z,51.47
2023-02-23T03:04:38.881Z,50.43
2023-02-23T03:07:35.079Z,54.10
2023-02-23T03:10:34.186Z,55.20
2023-02-23T03:13:36.125Z,54.00
2023-02-23T03:16:34.475Z,61.80
2023-02-23T03:19:31.937Z,54.40
2023-02-23T03:22:26.509Z,51.90
2023-02-23T03:25:22.481Z,51.17
2023-02-23T03:28:14.046Z,58.90
2023-02-23T03:31:08.557Z,57.77
2023-02-23T03:34:05.012Z,53.57
2023-02-23T03:36:58.059Z,56.67
2023-02-23T03:39:51.750Z,55.13
2023-02-23T03:42:42.733Z,51.43
2023-02-23T03:45:40.146Z,53.73
2023-02-23T03:48:33.436Z,52.10
2023-02-23T03:51:24.141Z,49.93
2023-02-23T03:54:15.829Z,49.20
2023-02-23T03:57:05.595Z,48.80
2023-02-23T03:59:57.541Z,53.23
2023-02-23T04:02:46.764Z,52.83
2023-02-23T04:05:39.500Z,56.47
2023-02-23T04:08:30.725Z,56.30
2023-02-23T04:11:28.549Z,57.53
2023-02-23T04:14:07.414Z,58.80
2023-02-23T04:16:35.062Z,56.47
2023-02-23T04:19:05.543Z,60.00
2023-02-23T04:21:33.370Z,63.23
2023-02-23T04:24:04.152Z,68.17
2023-02-23T04:26:33.985Z,58.23
2023-02-23T04:29:02.417Z,57.97
2023-02-23T04:31:32.156Z,60.07
2023-02-23T04:34:02.121Z,61.10
2023-02-23T04:36:34.596Z,60.37
2023-02-23T04:39:05.962Z,58.20
2023-02-23T04:41:33.959Z,64.67
2023-02-23T04:44:06.924Z,64.70
2023-02-23T04:46:36.190Z,60.70
2023-02-23T04:49:07.855Z,57.57
2023-02-23T04:51:37.447Z,60.90
2023-02-23T04:54:07.318Z,61.77
2023-02-23T04:56:39.466Z,63.57
2023-02-23T04:59:10.913Z,63.07
2023-02-23T05:01:39.743Z,62.40
2023-02-23T05:04:07.957Z,69.43
2023-02-23T05:06:37.642Z,60.43
2023-02-23T05:09:07.207Z,67.63
2023-02-23T05:11:35.589Z,62.03
2023-02-23T05:14:07.033Z,60.73
2023-02-23T05:16:35.928Z,58.33
2023-02-23T05:19:04.424Z,64.97
2023-02-23T05:21:32.794Z,59.10
2023-02-23T05:24:02.451Z,61.23
2023-02-23T05:26:32.671Z,63.33
2023-02-23T05:29:03.514Z,60.97
2023-02-23T05:31:31.845Z,64.37
2023-02-23T05:34:00.231Z,66.93
2023-02-23T05:36:29.649Z,59.53
2023-02-23T05:38:58.010Z,67.17
2023-02-23T05:41:30.315Z,65.53
2023-02-23T05:44:02.112Z,60.20
2023-02-23T05:46:30.761Z,57.97
2023-02-23T05:49:00.751Z,61.30
2023-02-23T05:51:31.991Z,65.40
2023-02-23T05:54:00.803Z,56.33
2023-02-23T05:56:30.370Z,59.37
2023-02-23T05:59:04.841Z,61.77
2023-02-23T06:01:40.245Z,60.57
2023-02-23T06:04:10.418Z,60.63
2023-02-23T06:06:43.029Z,60.07
2023-02-23T06:09:11.316Z,64.93
2023-02-23T06:11:43.330Z,62.33
2023-02-23T06:14:17.483Z,65.37
2023-02-23T06:16:45.481Z,62.40
2023-02-23T06:19:16.825Z,67.93
2023-02-23T06:21:48.866Z,71.57
2023-02-23T06:24:19.205Z,61.83
2023-02-23T06:26:51.412Z,69.37
2023-02-23T06:29:21.617Z,71.00
2023-02-23T06:31:52.526Z,73.43
2023-02-23T06:34:21.303Z,73.50
2023-02-23T06:36:51.391Z,83.90
2023-02-23T06:39:20.176Z,77.33
2023-02-23T06:41:51.480Z,86.63
2023-02-23T06:44:20.896Z,82.80
2023-02-23T06:46:49.337Z,86.60
2023-02-23T06:49:18.962Z,85.43
2023-02-23T06:51:47.854Z,87.23
2023-02-23T06:54:21.725Z,86.13
2023-02-23T06:56:58.302Z,85.37
2023-02-23T06:59:28.378Z,98.77
2023-02-23T07:01:57.445Z,93.17
2023-02-23T07:04:25.745Z,87.53
2023-02-23T07:06:54.668Z,79.33
2023-02-23T07:09:25.589Z,85.60
2023-02-23T07:11:58.424Z,81.80
2023-02-23T07:14:29.192Z,79.20
2023-02-23T07:16:59.697Z,80.93
2023-02-23T07:19:28.784Z,85.87
2023-02-23T07:21:59.369Z,79.40
2023-02-23T07:24:33.582Z,75.73
2023-02-23T07:27:10.063Z,70.43
2023-02-23T07:29:38.868Z,79.03
2023-02-23T07:32:09.616Z,71.83
2023-02-23T07:34:38.263Z,72.80
2023-02-23T07:37:07.240Z,72.13
2023-02-23T07:39:37.802Z,65.93
2023-02-23T07:42:09.478Z,65.47
2023-02-23T07:44:46.907Z,65.13
2023-02-23T07:47:20.352Z,66.07
2023-02-23T07:49:48.411Z,61.73
2023-02-23T07:52:19.278Z,61.77
2023-02-23T07:54:49.584Z,63.37
2023-02-23T07:57:21.617Z,63.93
2023-02-23T07:59:52.066Z,57.30
2023-02-23T08:02:20.025Z,52.47
2023-02-23T08:04:49.437Z,55.97
2023-02-23T08:07:19.093Z,55.80
2023-02-23T08:09:47.700Z,60.03
2023-02-23T08:12:16.383Z,58.27
2023-02-23T08:14:46.839Z,53.37
2023-02-23T08:17:18.047Z,56.53
2023-02-23T08:19:49.371Z,59.40
2023-02-23T08:22:19.398Z,57.10
2023-02-23T08:24:51.133Z,58.07
2023-02-23T08:27:22.994Z,54.90
2023-02-23T08:29:53.085Z,55.07
2023-02-23T08:32:21.284Z,50.63
2023-02-23T08:34:54.165Z,52.73
2023-02-23T08:37:25.719Z,50.17
2023-02-23T08:39:54.049Z,50.13
2023-02-23T08:42:24.860Z,53.33
2023-02-23T08:44:54.574Z,51.03
2023-02-23T08:47:24.266Z,56.10
2023-02-23T08:49:57.132Z,49.93
2023-02-23T08:52:25.437Z,51.43
2023-02-23T08:54:54.067Z,50.27
2023-02-23T08:57:22.259Z,52.00
2023-02-23T08:59:51.871Z,47.37
2023-02-23T09:02:25.211Z,48.80
2023-02-23T09:04:54.071Z,49.83
2023-02-23T09:07:25.290Z,53.27
2023-02-23T09:09:56.896Z,48.90
2023-02-23T09:12:26.376Z,53.43
2023-02-23T09:14:56.674Z,48.80
2023-02-23T09:17:26.799Z,49.60
2023-02-23T09:19:54.749Z,50.17
2023-02-23T09:22:25.982Z,50.57
2023-02-23T09:24:55.914Z,45.97
2023-02-23T09:27:25.139Z,48.43
2023-02-23T09:29:53.748Z,41.40
2023-02-23T09:32:22.259Z,44.63
2023-02-23T09:34:52.545Z,46.23
2023-02-23T09:37:21.831Z,48.37
2023-02-23T09:39:53.467Z,42.23
2023-02-23T09:45:26.868Z,44.80
2023-02-23T09:48:11.057Z,46.87
2023-02-23T09:50:47.634Z,45.97
2023-02-23T09:53:29.497Z,44.80
2023-02-23T09:56:02.921Z,45.00
2023-02-23T09:58:36.738Z,46.00
2023-02-23T10:01:42.677Z,40.63
2023-02-23T10:04:23.916Z,38.57
2023-02-23T10:07:04.178Z,37.63
2023-02-23T10:09:54.795Z,39.73
2023-02-23T10:12:32.252Z,42.93
2023-02-23T10:15:11.265Z,37.93
2023-02-23T10:17:50.188Z,40.90
2023-02-23T10:20:31.670Z,40.75
2023-02-23T10:23:06.774Z,38.00
2023-02-23T10:25:42.056Z,38.30
2023-02-23T10:28:14.642Z,37.27
2023-02-23T10:30:43.064Z,34.30
2023-02-23T10:33:17.414Z,30.73
2023-02-23T10:35:47.998Z,35.23
2023-02-23T10:38:20.612Z,36.50
2023-02-23T10:40:54.598Z,33.07
2023-02-23T10:43:25.784Z,33.43
2023-02-23T10:45:55.986Z,33.43
2023-02-23T10:48:31.434Z,34.20
2023-02-23T10:51:02.897Z,33.87
2023-02-23T10:53:36.351Z,31.07
2023-02-23T10:56:10.780Z,32.10
2023-02-23T10:58:46.873Z,32.60
2023-02-23T11:01:18.957Z,32.47
2023-02-23T11:03:57.556Z,31.97
2023-02-23T11:06:41.323Z,34.53
2023-02-23T11:09:41.318Z,33.93
2023-02-23T11:12:21.782Z,29.23
2023-02-23T11:14:58.524Z,33.20
2023-02-23T11:17:37.557Z,31.23
2023-02-23T11:20:23.942Z,33.17
2023-02-23T11:22:55.744Z,28.17
2023-02-23T11:25:30.758Z,27.73
2023-02-23T11:28:01.419Z,29.37
2023-02-23T11:30:43.909Z,28.17
2023-02-23T11:33:23.187Z,31.83
2023-02-23T11:36:00.550Z,26.07
2023-02-23T11:38:32.595Z,26.73
2023-02-23T11:41:26.065Z,26.43
2023-02-23T11:43:59.742Z,25.47
2023-02-23T11:46:32.786Z,23.20
2023-02-23T11:49:07.911Z,21.97
2023-02-23T11:51:40.683Z,25.07
2023-02-23T11:54:27.170Z,24.10
2023-02-23T11:56:57.928Z,26.00
2023-02-23T11:59:31.228Z,18.83
2023-02-23T12:02:08.695Z,21.40
2023-02-23T12:04:47.452Z,24.57
2023-02-23T12:07:41.563Z,28.07
2023-02-23T12:10:23.289Z,22.80
2023-02-23T12:13:04.447Z,18.10
2023-02-23T12:15:46.275Z,24.63
2023-02-23T12:18:35.827Z,20.47
2023-02-23T12:21:15.487Z,18.93
2023-02-23T12:23:50.812Z,16.40
2023-02-23T12:26:26.590Z,15.67
2023-02-23T12:29:02.969Z,18.03
2023-02-23T12:31:44.118Z,18.77
2023-02-23T12:34:20.671Z,16.67
2023-02-23T12:36:56.224Z,25.67
2023-02-23T12:39:33.542Z,22.23
2023-02-23T12:42:09.097Z,21.70
2023-02-23T12:44:46.355Z,19.60
2023-02-23T12:47:24.751Z,19.50
2023-02-23T12:50:01.359Z,25.57
2023-02-23T12:52:32.358Z,18.43
2023-02-23T12:55:04.156Z,16.53
2023-02-23T12:57:40.980Z,18.13
2023-02-23T13:00:42.461Z,18.17
2023-02-23T13:03:49.825Z,18.13
2023-02-23T13:06:31.769Z,18.17
2023-02-23T13:09:11.248Z,14.93
2023-02-23T13:12:10.224Z,13.93
2023-02-23T13:14:52.958Z,18.67
2023-02-23T13:17:43.204Z,13.73
2023-02-23T13:20:20.603Z,15.37
2023-02-23T13:22:56.721Z,13.20
2023-02-23T13:25:42.549Z,20.07
2023-02-23T13:28:19.281Z,11.37
2023-02-23T13:30:53.048Z,9.97
2023-02-23T13:33:43.604Z,6.53
2023-02-23T13:36:17.570Z,12.00
2023-02-23T13:39:32.972Z,9.57
2023-02-23T13:42:33.041Z,6.70
2023-02-23T13:45:25.794Z,9.07
2023-02-23T13:48:02.454Z,12.17
2023-02-23T13:50:43.821Z,12.07
2023-02-23T13:53:34.615Z,8.13
2023-02-23T13:56:08.539Z,7.10
2023-02-23T13:58:39.830Z,8.50
2023-02-23T14:01:19.980Z,8.73
2023-02-23T14:03:55.817Z,10.63
2023-02-23T14:06:32.915Z,8.03
2023-02-23T14:09:09.627Z,13.27
2023-02-23T14:11:48.492Z,12.87
2023-02-23T14:14:44.369Z,13.67
2023-02-23T14:17:41.996Z,13.13
2023-02-23T14:20:29.832Z,6.17
2023-02-23T14:23:18.921Z,18.87
2023-02-23T14:25:55.162Z,8.20
2023-02-23T14:28:36.987Z,9.03
2023-02-23T14:31:20.527Z,11.53
2023-02-23T14:34:03.299Z,8.97
2023-02-23T14:36:37.262Z,9.40
2023-02-23T14:39:10.824Z,12.17
2023-02-23T14:41:46.832Z,11.03
2023-02-23T14:44:28.950Z,10.73
2023-02-23T14:47:09.670Z,10.13
2023-02-23T14:49:46.949Z,9.33
2023-02-23T14:52:21.785Z,11.17
2023-02-23T14:54:50.145Z,10.10
2023-02-23T14:57:22.665Z,12.90
2023-02-23T14:59:57.993Z,10.83
2023-02-23T15:02:31.125Z,11.67
2023-02-23T15:05:01.886Z,7.47
2023-02-23T15:07:45.241Z,9.47
2023-02-23T15:10:22.511Z,8.50
2023-02-23T15:12:50.694Z,13.40
2023-02-23T15:15:24.946Z,13.67
2023-02-23T15:17:58.757Z,13.83
2023-02-23T15:20:37.178Z,11.13
2023-02-23T15:23:06.827Z,14.13
2023-02-23T15:25:38.821Z,14.90
2023-02-23T15:28:22.931Z,13.97
2023-02-23T15:30:56.806Z,14.60
2023-02-23T15:33:28.391Z,10.30
2023-02-23T15:36:05.243Z,11.23
2023-02-23T15:38:44.829Z,13.90
2023-02-23T15:41:26.760Z,11.47
2023-02-23T15:43:57.260Z,13.50
2023-02-23T15:46:30.491Z,13.80
2023-02-23T15:49:03.337Z,11.80
2023-02-23T15:51:37.861Z,14.80
2023-02-23T15:54:14.224Z,16.27
2023-02-23T15:56:50.189Z,11.80
2023-02-23T15:59:24.606Z,13.67
2023-02-23T16:01:55.770Z,14.93
2023-02-23T16:04:30.559Z,13.50
2023-02-23T16:07:19.545Z,13.80
2023-02-23T16:09:57.705Z,10.40
2023-02-23T16:12:32.053Z,9.13
2023-02-23T16:15:03.407Z,13.20
2023-02-23T16:17:42.603Z,15.17
2023-02-23T16:20:17.492Z,11.73
2023-02-23T16:22:53.658Z,10.33
2023-02-23T16:25:28.416Z,14.60
2023-02-23T16:28:02.929Z,11.67
2023-02-23T16:30:42.892Z,25.63
2023-02-23T16:33:19.838Z,13.90
2023-02-23T16:35:50.637Z,14.70
2023-02-23T16:38:31.619Z,15.03
2023-02-23T16:41:01.647Z,14.97
2023-02-23T16:43:31.685Z,14.37
2023-02-23T16:46:00.141Z,14.87
2023-02-23T16:48:30.397Z,18.13
2023-02-23T16:50:59.142Z,14.00
2023-02-23T16:53:31.456Z,13.37
2023-02-23T16:56:06.936Z,20.33
2023-02-23T16:58:36.947Z,13.47
2023-02-23T17:01:06.964Z,12.10
2023-02-23T17:03:43.801Z,16.70
2023-02-23T17:06:15.807Z,11.57
2023-02-23T17:08:56.151Z,15.13
2023-02-23T17:11:26.253Z,14.30
2023-02-23T17:14:03.214Z,14.00
2023-02-23T17:16:31.242Z,16.87
2023-02-23T17:19:01.873Z,14.90
2023-02-23T17:21:31.714Z,19.73
2023-02-23T17:24:03.631Z,15.83
2023-02-23T17:26:36.675Z,12.17
2023-02-23T17:29:07.763Z,16.87
2023-02-23T17:31:40.468Z,17.07
2023-02-23T17:34:11.481Z,14.40
2023-02-23T17:36:40.177Z,15.40
2023-02-23T17:39:10.406Z,15.63
2023-02-23T17:41:40.190Z,16.53
2023-02-23T17:44:08.246Z,17.70
2023-02-23T17:46:37.146Z,17.17
2023-02-23T17:49:05.743Z,14.20
2023-02-23T17:51:36.491Z,16.77
2023-02-23T17:54:05.037Z,19.43
2023-02-23T17:56:36.713Z,16.53
2023-02-23T17:59:05.615Z,22.70
2023-02-23T18:01:34.532Z,20.47
2023-02-23T18:04:02.640Z,19.40
2023-02-23T18:06:30.575Z,20.03
2023-02-23T18:09:04.795Z,19.30
2023-02-23T18:11:38.295Z,17.97
2023-02-23T18:14:09.577Z,20.03
2023-02-23T18:16:38.508Z,20.63
2023-02-23T18:19:06.521Z,21.03
2023-02-23T18:21:40.667Z,20.00
2023-02-23T18:24:16.398Z,19.27
2023-02-23T18:26:47.564Z,22.23
2023-02-23T18:29:23.017Z,25.30
2023-02-23T18:31:52.774Z,20.07
2023-02-23T18:34:21.315Z,22.47
2023-02-23T18:36:53.068Z,21.57
2023-02-23T18:39:21.669Z,22.40
2023-02-23T18:41:51.472Z,24.60
2023-02-23T18:44:23.968Z,24.23
2023-02-23T18:46:52.901Z,22.23
2023-02-23T18:49:25.140Z,21.67
2023-02-23T18:51:53.776Z,21.20
2023-02-23T18:54:22.532Z,23.07
2023-02-23T18:56:55.897Z,22.37
2023-02-23T18:59:23.759Z,22.20
2023-02-23T19:01:53.701Z,22.40
2023-02-23T19:04:29.401Z,24.93
2023-02-23T19:06:58.886Z,22.47
2023-02-23T19:09:29.201Z,24.70
2023-02-23T19:11:59.957Z,25.43
2023-02-23T19:14:47.865Z,26.43
2023-02-23T19:17:16.431Z,24.87
2023-02-23T19:19:46.679Z,24.33
2023-02-23T19:22:15.370Z,27.67
2023-02-23T19:24:46.936Z,21.87
2023-02-23T19:27:18.401Z,21.37
2023-02-23T19:29:48.018Z,22.77
2023-02-23T19:32:20.324Z,20.27
2023-02-23T19:34:50.508Z,20.43
2023-02-23T19:37:19.904Z,23.50
2023-02-23T19:39:49.003Z,23.20
2023-02-23T19:42:21.898Z,23.77
2023-02-23T19:45:00.734Z,24.73
2023-02-23T19:47:29.683Z,24.00
2023-02-23T19:49:58.287Z,23.63
2023-02-23T19:52:28.802Z,27.03
2023-02-23T19:54:56.863Z,25.30
2023-02-23T19:57:31.384Z,25.70
2023-02-23T20:00:00.119Z,24.77
2023-02-23T20:02:28.722Z,25.03
2023-02-23T20:05:01.734Z,22.93
2023-02-23T20:07:33.146Z,21.30
2023-02-23T20:10:05.441Z,21.87
2023-02-23T20:12:40.692Z,21.60
2023-02-23T20:15:10.785Z,22.10
2023-02-23T20:17:40.212Z,25.83
2023-02-23T20:20:11.995Z,23.20
2023-02-23T20:22:41.255Z,24.30
2023-02-23T20:25:16.927Z,20.60
2023-02-23T20:27:49.879Z,22.40
2023-02-23T20:30:18.826Z,21.50
2023-02-23T20:32:50.291Z,22.23
2023-02-23T20:35:21.863Z,21.60
2023-02-23T20:37:49.818Z,20.30
2023-02-23T20:40:20.089Z,22.20
2023-02-23T20:42:52.838Z,22.40
2023-02-23T20:45:24.327Z,21.90
2023-02-23T20:47:54.138Z,20.77
2023-02-23T20:50:32.982Z,20.90
2023-02-23T20:53:02.705Z,20.77
2023-02-23T20:55:33.610Z,20.83
2023-02-23T20:58:05.879Z,24.13
2023-02-23T21:00:34.331Z,21.67
2023-02-23T21:03:03.824Z,21.27
2023-02-23T21:05:34.614Z,23.07
2023-02-23T21:08:09.988Z,21.77
2023-02-23T21:10:40.513Z,21.10
2023-02-23T21:13:14.583Z,24.17
2023-02-23T21:15:46.392Z,19.77
2023-02-23T21:18:14.670Z,21.23
2023-02-23T21:20:46.154Z,18.77
2023-02-23T21:23:14.258Z,21.40
2023-02-23T21:25:45.719Z,19.93
2023-02-23T21:28:16.822Z,21.87
2023-02-23T21:30:47.248Z,21.87
2023-02-23T21:33:17.992Z,21.73
2023-02-23T21:35:46.671Z,20.70
2023-02-23T21:38:15.516Z,20.50
2023-02-23T21:40:43.865Z,21.17
2023-02-23T21:43:13.810Z,21.47
2023-02-23T21:45:48.791Z,22.50
2023-02-23T21:48:20.165Z,22.67
2023-02-23T21:50:49.557Z,28.13
2023-02-23T21:53:21.321Z,24.57
2023-02-23T21:55:53.790Z,23.10
2023-02-23T21:58:21.714Z,23.90
2023-02-23T22:00:50.945Z,24.73
2023-02-23T22:03:20.887Z,26.90
2023-02-23T22:05:51.530Z,22.80
2023-02-23T22:08:22.773Z,24.70
2023-02-23T22:10:52.672Z,27.13
2023-02-23T22:13:20.979Z,28.03
2023-02-23T22:15:51.531Z,26.47
2023-02-23T22:18:25.258Z,25.13
2023-02-23T22:20:58.740Z,26.50
2023-02-23T22:23:28.616Z,24.20
2023-02-23T22:26:04.139Z,24.43
2023-02-23T22:28:32.954Z,22.67
2023-02-23T22:31:11.015Z,29.80
2023-02-23T22:33:43.495Z,26.70
2023-02-23T22:36:18.100Z,23.80
2023-02-23T22:38:48.027Z,22.53
2023-02-23T22:41:17.814Z,25.10
2023-02-23T22:43:49.945Z,23.10
2023-02-23T22:46:19.448Z,24.07
2023-02-23T22:48:47.553Z,24.47
2023-02-23T22:51:17.939Z,22.93
2023-02-23T22:53:46.169Z,24.70
2023-02-23T22:56:14.018Z,24.90
2023-02-23T22:58:43.138Z,25.50
2023-02-23T23:01:12.531Z,25.87
2023-02-23T23:03:45.670Z,25.40
2023-02-23T23:06:21.936Z,25.77
2023-02-23T23:08:56.252Z,28.17
2023-02-23T23:11:30.123Z,27.23
2023-02-23T23:14:04.039Z,30.63
2023-02-23T23:16:33.907Z,27.27
2023-02-23T23:19:12.652Z,29.83
2023-02-23T23:21:42.219Z,26.17
2023-02-23T23:24:13.188Z,29.00
2023-02-23T23:26:43.023Z,26.33
2023-02-23T23:29:14.557Z,25.37
2023-02-23T23:31:47.152Z,27.27
2023-02-23T23:34:22.191Z,27.70
2023-02-23T23:36:53.147Z,27.93
2023-02-23T23:39:26.330Z,23.47
2023-02-23T23:41:56.744Z,27.27
2023-02-23T23:44:29.827Z,27.73
2023-02-23T23:46:59.888Z,26.30
2023-02-23T23:49:30.563Z,28.67
2023-02-23T23:52:00.310Z,27.47
2023-02-23T23:54:31.844Z,26.03
2023-02-23T23:57:01.922Z,27.77
2023-02-23T23:59:31.840Z,26.03
